createdAt,value
2018-08-30T00:02:11.507Z,20.30
2018-08-30T00:04:40.165Z,20.20
2018-08-30T00:07:08.538Z,20.20
2018-08-30T00:09:36.906Z,20.20
2018-08-30T00:12:05.505Z,20.20
2018-08-30T00:14:34.450Z,20.10
2018-08-30T00:17:03.506Z,20.10
2018-08-30T00:19:31.925Z,20.10
2018-08-30T00:22:00.594Z,20.10
2018-08-30T00:24:28.935Z,20.00
2018-08-30T00:26:57.342Z,20.00
2018-08-30T00:29:25.946Z,20.00
2018-08-30T00:31:55.346Z,19.90
2018-08-30T00:34:24.714Z,19.90
2018-08-30T00:36:53.085Z,19.90
2018-08-30T00:39:21.435Z,20.00
2018-08-30T00:41:50.038Z,20.00
2018-08-30T00:44:18.702Z,19.90
2018-08-30T00:46:47.098Z,19.90
2018-08-30T00:49:17.065Z,19.90
2018-08-30T00:51:45.682Z,19.90
2018-08-30T00:54:14.262Z,19.90
2018-08-30T00:56:42.893Z,19.80
2018-08-30T00:59:11.583Z,19.70
2018-08-30T01:01:40.299Z,19.80
2018-08-30T01:04:08.671Z,19.90
2018-08-30T01:06:38.726Z,19.90
2018-08-30T01:09:07.634Z,19.80
2018-08-30T01:11:36.597Z,19.80
2018-08-30T01:14:04.987Z,19.70
2018-08-30T01:16:33.739Z,19.60
2018-08-30T01:19:02.683Z,19.60
2018-08-30T01:21:31.362Z,19.50
2018-08-30T01:23:59.785Z,19.50
2018-08-30T01:26:28.422Z,19.40
2018-08-30T01:28:57.109Z,19.40
2018-08-30T01:31:25.586Z,19.30
2018-08-30T01:33:54.227Z,19.30
2018-08-30T01:36:23.163Z,19.30
2018-08-30T01:38:51.830Z,19.30
2018-08-30T01:41:20.540Z,19.30
2018-08-30T01:43:50.946Z,19.20
2018-08-30T01:46:20.915Z,19.30
2018-08-30T01:48:55.885Z,19.30
2018-08-30T01:51:24.262Z,19.20
2018-08-30T01:53:53.073Z,19.20
2018-08-30T01:56:21.678Z,19.20
2018-08-30T01:58:50.090Z,19.20
2018-08-30T02:01:18.454Z,19.20
2018-08-30T02:03:47.286Z,19.20
2018-08-30T02:06:15.674Z,19.20
2018-08-30T02:08:44.010Z,19.10
2018-08-30T02:11:13.047Z,19.10
2018-08-30T02:13:41.422Z,19.10
2018-08-30T02:16:09.901Z,19.10
2018-08-30T02:18:39.089Z,19.00
2018-08-30T02:21:07.770Z,18.90
2018-08-30T02:23:36.402Z,18.90
2018-08-30T02:26:05.150Z,18.90
2018-08-30T02:28:33.518Z,18.80
2018-08-30T02:31:02.641Z,18.80
2018-08-30T02:33:31.274Z,18.70
2018-08-30T02:35:59.885Z,18.70
2018-08-30T02:38:28.570Z,18.70
2018-08-30T02:40:56.970Z,18.70
2018-08-30T02:43:25.695Z,18.70
2018-08-30T02:45:54.246Z,18.70
2018-08-30T02:48:24.216Z,18.70
2018-08-30T02:50:53.128Z,18.60
2018-08-30T02:53:21.723Z,18.50
2018-08-30T02:55:50.907Z,18.50
2018-08-30T02:58:19.630Z,18.40
2018-08-30T03:00:48.583Z,18.40
2018-08-30T03:03:16.947Z,18.40
2018-08-30T03:05:45.874Z,18.30
2018-08-30T03:08:14.744Z,18.30
2018-08-30T03:10:43.335Z,18.20
2018-08-30T03:13:12.099Z,18.20
2018-08-30T03:15:40.704Z,18.10
2018-08-30T03:18:09.439Z,18.10
2018-08-30T03:20:38.438Z,18.10
2018-08-30T03:23:07.367Z,18.00
2018-08-30T03:25:35.990Z,17.90
2018-08-30T03:28:04.382Z,18.00
2018-08-30T03:30:33.452Z,18.00
2018-08-30T03:33:02.330Z,17.90
2018-08-30T03:35:30.706Z,18.00
2018-08-30T03:40:27.962Z,17.80
2018-08-30T03:42:56.338Z,17.80
2018-08-30T03:45:24.686Z,17.80
2018-08-30T03:47:53.061Z,17.80
2018-08-30T03:50:22.179Z,17.70
2018-08-30T03:52:50.550Z,17.70
2018-08-30T03:55:19.750Z,17.70
2018-08-30T03:57:48.270Z,17.70
2018-08-30T04:00:16.934Z,17.60
2018-08-30T04:02:45.286Z,17.60
2018-08-30T04:05:14.303Z,17.50
2018-08-30T04:07:43.215Z,17.50
2018-08-30T04:10:11.570Z,17.50
2018-08-30T04:12:40.266Z,17.50
2018-08-30T04:15:09.131Z,17.50
2018-08-30T04:17:37.722Z,17.50
2018-08-30T04:20:06.382Z,17.60
2018-08-30T04:22:34.994Z,17.60
2018-08-30T04:25:03.477Z,17.60
2018-08-30T04:27:31.851Z,17.60
2018-08-30T04:30:00.762Z,17.60
2018-08-30T04:32:29.737Z,17.50
2018-08-30T04:34:58.973Z,17.40
2018-08-30T04:37:27.322Z,17.40
2018-08-30T04:39:55.668Z,17.40
2018-08-30T04:42:24.143Z,17.40
2018-08-30T04:44:52.452Z,17.40
2018-08-30T04:47:21.382Z,17.40
2018-08-30T04:49:51.309Z,17.40
2018-08-30T04:52:21.055Z,17.40
2018-08-30T04:54:49.691Z,17.40
2018-08-30T04:57:18.286Z,17.40
2018-08-30T04:59:46.668Z,17.40
2018-08-30T05:02:15.342Z,17.40
2018-08-30T05:04:44.090Z,17.40
2018-08-30T05:07:12.722Z,17.40
2018-08-30T05:09:42.091Z,17.40
2018-08-30T05:12:10.855Z,17.40
2018-08-30T05:14:39.706Z,17.40
2018-08-30T05:17:08.071Z,17.40
2018-08-30T05:19:36.430Z,17.40
2018-08-30T05:22:05.191Z,17.30
2018-08-30T05:24:33.574Z,17.30
2018-08-30T05:27:02.255Z,17.40
2018-08-30T05:29:31.148Z,17.40
2018-08-30T05:31:59.826Z,17.30
2018-08-30T05:34:28.174Z,17.40
2018-08-30T05:36:57.410Z,17.30
2018-08-30T05:39:25.930Z,17.30
2018-08-30T05:41:54.570Z,17.30
2018-08-30T05:44:22.949Z,17.30
2018-08-30T05:46:51.655Z,17.30
2018-08-30T05:49:20.242Z,17.30
2018-08-30T05:51:48.870Z,17.30
2018-08-30T05:54:17.553Z,17.30
2018-08-30T05:56:45.936Z,17.30
2018-08-30T05:59:14.547Z,17.20
2018-08-30T06:01:43.255Z,17.00
2018-08-30T06:04:12.844Z,16.90
2018-08-30T06:06:41.450Z,16.80
2018-08-30T06:09:09.850Z,16.80
2018-08-30T06:11:38.831Z,16.60
2018-08-30T06:14:07.237Z,16.50
2018-08-30T06:16:35.959Z,16.50
2018-08-30T06:19:12.224Z,16.40
2018-08-30T06:21:40.606Z,16.30
2018-08-30T06:24:09.090Z,16.30
2018-08-30T06:26:37.734Z,16.30
2018-08-30T06:29:06.899Z,16.30
2018-08-30T06:31:35.891Z,16.30
2018-08-30T06:34:04.510Z,16.30
2018-08-30T06:36:33.099Z,16.40
2018-08-30T06:39:01.724Z,16.50
2018-08-30T06:41:30.334Z,16.50
2018-08-30T06:43:58.974Z,16.60
2018-08-30T06:46:27.358Z,16.70
2018-08-30T06:48:55.855Z,16.80
2018-08-30T06:51:25.242Z,16.80
2018-08-30T06:53:53.603Z,16.90
2018-08-30T06:56:22.095Z,16.90
2018-08-30T06:58:50.399Z,16.90
2018-08-30T07:01:18.822Z,16.80
2018-08-30T07:03:47.474Z,16.80
2018-08-30T07:06:15.824Z,16.80
2018-08-30T07:08:44.166Z,16.80
2018-08-30T07:11:12.600Z,16.90
2018-08-30T07:13:41.846Z,16.90
2018-08-30T07:16:10.500Z,16.90
2018-08-30T07:18:38.858Z,16.90
2018-08-30T07:21:07.785Z,16.90
2018-08-30T07:23:36.118Z,16.90
2018-08-30T07:26:04.491Z,17.00
2018-08-30T07:28:32.900Z,17.20
2018-08-30T07:31:01.278Z,17.30
2018-08-30T07:33:29.643Z,17.40
2018-08-30T07:35:59.216Z,17.50
2018-08-30T07:38:27.602Z,17.60
2018-08-30T07:40:55.966Z,17.60
2018-08-30T07:43:24.662Z,17.50
2018-08-30T07:45:53.035Z,17.60
2018-08-30T07:48:21.726Z,17.70
2018-08-30T07:50:50.172Z,17.80
2018-08-30T07:53:18.517Z,17.70
2018-08-30T07:55:47.118Z,17.70
2018-08-30T07:58:16.059Z,17.70
2018-08-30T08:00:47.451Z,17.70
2018-08-30T08:03:17.663Z,17.70
2018-08-30T08:05:46.038Z,17.80
2018-08-30T08:08:15.127Z,17.90
2018-08-30T08:10:44.026Z,18.00
2018-08-30T08:13:12.417Z,18.10
2018-08-30T08:15:40.798Z,18.10
2018-08-30T08:18:09.250Z,18.30
2018-08-30T08:20:38.114Z,18.40
2018-08-30T08:23:06.474Z,18.60
2018-08-30T08:25:34.852Z,18.80
2018-08-30T08:28:03.552Z,18.80
2018-08-30T08:30:32.263Z,18.80
2018-08-30T08:33:00.634Z,18.70
2018-08-30T08:35:29.612Z,18.80
2018-08-30T08:37:58.315Z,19.00
2018-08-30T08:40:26.984Z,19.00
2018-08-30T08:42:55.601Z,18.90
2018-08-30T08:45:23.970Z,18.90
2018-08-30T08:47:52.998Z,18.90
2018-08-30T08:50:21.314Z,18.90
2018-08-30T08:52:49.734Z,19.00
2018-08-30T08:55:18.395Z,19.00
2018-08-30T08:57:46.855Z,19.20
2018-08-30T09:00:15.330Z,19.50
2018-08-30T09:02:44.047Z,20.20
2018-08-30T09:05:12.710Z,20.80
2018-08-30T09:07:41.126Z,21.10
2018-08-30T09:10:10.082Z,21.00
2018-08-30T09:12:38.472Z,21.10
2018-08-30T09:15:06.904Z,21.50
2018-08-30T09:17:35.558Z,21.60
2018-08-30T09:20:04.026Z,21.40
2018-08-30T09:22:32.423Z,21.60
2018-08-30T09:25:00.766Z,21.70
2018-08-30T09:27:29.442Z,22.00
2018-08-30T09:29:58.620Z,21.90
2018-08-30T09:32:27.787Z,22.20
2018-08-30T09:34:56.583Z,22.20
2018-08-30T09:37:25.575Z,22.20
2018-08-30T09:39:54.500Z,21.90
2018-08-30T09:42:23.063Z,21.40
2018-08-30T09:44:51.763Z,20.90
2018-08-30T09:47:20.398Z,20.70
2018-08-30T09:49:49.201Z,20.60
2018-08-30T09:52:18.623Z,20.30
2018-08-30T09:54:47.254Z,20.30
2018-08-30T09:57:16.272Z,21.10
2018-08-30T09:59:44.841Z,21.90
2018-08-30T10:02:18.942Z,22.30
2018-08-30T10:04:47.961Z,22.60
2018-08-30T10:07:16.262Z,23.00
2018-08-30T10:09:45.409Z,23.60
2018-08-30T10:12:13.797Z,24.00
2018-08-30T10:14:42.189Z,24.10
2018-08-30T10:17:11.159Z,24.20
2018-08-30T10:19:39.563Z,24.10
2018-08-30T10:22:08.647Z,24.10
2018-08-30T10:24:37.295Z,23.70
2018-08-30T10:27:05.811Z,23.50
2018-08-30T10:29:34.471Z,23.50
2018-08-30T10:32:03.775Z,23.70
2018-08-30T10:34:32.163Z,23.80
2018-08-30T10:37:01.203Z,23.70
2018-08-30T10:39:29.499Z,23.80
2018-08-30T10:41:58.630Z,23.90
2018-08-30T10:44:26.991Z,24.10
2018-08-30T10:46:55.666Z,23.90
2018-08-30T10:49:24.213Z,24.00
2018-08-30T10:51:52.878Z,24.60
2018-08-30T10:54:21.598Z,25.00
2018-08-30T10:56:50.258Z,25.10
2018-08-30T10:59:18.718Z,25.30
2018-08-30T11:01:47.522Z,25.40
2018-08-30T11:04:16.659Z,24.80
2018-08-30T11:06:45.256Z,24.60
2018-08-30T11:09:13.625Z,24.30
2018-08-30T11:11:42.557Z,24.20
2018-08-30T11:14:10.939Z,24.20
2018-08-30T11:16:39.593Z,24.10
2018-08-30T11:19:09.267Z,24.10
2018-08-30T11:21:37.610Z,24.70
2018-08-30T11:24:06.526Z,25.30
2018-08-30T11:26:35.557Z,25.70
2018-08-30T11:29:04.423Z,26.00
2018-08-30T11:31:32.887Z,25.90
2018-08-30T11:34:01.616Z,26.20
2018-08-30T11:36:30.053Z,26.50
2018-08-30T11:38:58.674Z,26.90
2018-08-30T11:41:27.125Z,27.30
2018-08-30T11:43:55.703Z,27.10
2018-08-30T11:46:24.490Z,27.70
2018-08-30T11:51:21.982Z,28.60
2018-08-30T11:53:51.147Z,28.60
2018-08-30T11:56:19.520Z,28.40
2018-08-30T11:58:48.266Z,28.50
2018-08-30T12:01:16.648Z,28.40
2018-08-30T12:03:46.097Z,27.70
2018-08-30T12:06:14.786Z,26.80
2018-08-30T12:08:43.227Z,26.40
2018-08-30T12:11:11.975Z,26.30
2018-08-30T12:13:40.330Z,26.60
2018-08-30T12:16:09.074Z,27.50
2018-08-30T12:18:37.752Z,28.20
2018-08-30T12:21:06.404Z,28.90
2018-08-30T12:23:35.047Z,29.60
2018-08-30T12:26:03.708Z,29.80
2018-08-30T12:28:32.517Z,29.00
2018-08-30T12:31:02.161Z,28.70
2018-08-30T12:33:30.827Z,28.80
2018-08-30T12:35:59.992Z,29.00
2018-08-30T12:38:28.652Z,29.40
2018-08-30T12:40:57.069Z,29.30
2018-08-30T12:43:26.384Z,28.70
2018-08-30T12:45:54.887Z,28.70
2018-08-30T12:48:23.696Z,29.30
2018-08-30T12:50:53.218Z,30.10
2018-08-30T12:53:22.702Z,29.60
2018-08-30T12:55:51.128Z,28.90
2018-08-30T12:58:20.121Z,27.60
2018-08-30T13:00:48.384Z,27.40
2018-08-30T13:03:16.858Z,28.00
2018-08-30T13:05:45.642Z,28.20
2018-08-30T13:08:14.261Z,28.20
2018-08-30T13:10:42.881Z,28.40
2018-08-30T13:13:11.665Z,28.40
2018-08-30T13:15:40.765Z,28.20
2018-08-30T13:18:09.538Z,28.50
2018-08-30T13:20:38.025Z,28.50
2018-08-30T13:23:06.869Z,28.20
2018-08-30T13:25:35.721Z,28.10
2018-08-30T13:28:04.674Z,28.00
2018-08-30T13:30:33.199Z,27.40
2018-08-30T13:33:02.082Z,27.30
2018-08-30T13:35:30.937Z,27.30
2018-08-30T13:37:59.840Z,27.30
2018-08-30T13:40:28.716Z,27.20
2018-08-30T13:42:57.230Z,27.20
2018-08-30T13:45:26.408Z,27.00
2018-08-30T13:47:55.011Z,26.90
2018-08-30T13:50:23.758Z,26.90
2018-08-30T13:52:52.946Z,26.90
2018-08-30T13:55:23.546Z,26.70
2018-08-30T13:57:54.111Z,26.70
2018-08-30T14:00:23.095Z,26.70
2018-08-30T14:02:52.578Z,26.40
2018-08-30T14:05:21.933Z,26.10
2018-08-30T14:07:51.502Z,26.00
2018-08-30T14:10:20.972Z,25.80
2018-08-30T14:12:49.436Z,25.70
2018-08-30T14:15:19.149Z,25.80
2018-08-30T14:17:47.120Z,25.90
2018-08-30T14:20:16.666Z,26.00
2018-08-30T14:22:45.809Z,26.10
2018-08-30T14:25:15.356Z,26.00
2018-08-30T14:27:44.267Z,26.00
2018-08-30T14:30:13.548Z,25.80
2018-08-30T14:32:43.023Z,25.70
2018-08-30T14:35:12.172Z,25.40
2018-08-30T14:37:40.963Z,25.30
2018-08-30T14:40:09.913Z,25.30
2018-08-30T14:42:38.824Z,25.00
2018-08-30T14:45:07.194Z,24.80
2018-08-30T14:47:35.752Z,24.50
2018-08-30T14:50:05.264Z,24.40
2018-08-30T14:52:34.486Z,24.50
2018-08-30T14:55:03.943Z,24.60
2018-08-30T14:57:32.963Z,24.50
2018-08-30T15:00:03.625Z,24.30
2018-08-30T15:02:32.277Z,24.50
2018-08-30T15:05:00.635Z,24.80
2018-08-30T15:07:29.227Z,24.90
2018-08-30T15:09:58.872Z,24.80
2018-08-30T15:12:28.593Z,24.70
2018-08-30T15:14:57.270Z,24.90
2018-08-30T15:17:25.815Z,24.50
2018-08-30T15:19:56.025Z,24.10
2018-08-30T15:22:24.716Z,23.50
2018-08-30T15:24:53.196Z,23.50
2018-08-30T15:27:22.143Z,23.40
2018-08-30T15:29:50.515Z,23.70
2018-08-30T15:32:19.814Z,23.90
2018-08-30T15:34:48.922Z,24.10
2018-08-30T15:37:17.851Z,24.00
2018-08-30T15:39:52.842Z,23.90
2018-08-30T15:42:21.532Z,23.70
2018-08-30T15:44:50.524Z,23.60
2018-08-30T15:47:19.675Z,23.60
2018-08-30T15:49:48.491Z,23.50
2018-08-30T15:52:17.363Z,23.50
2018-08-30T15:54:45.894Z,23.50
2018-08-30T15:57:15.509Z,23.60
2018-08-30T15:59:44.185Z,23.60
2018-08-30T16:02:13.021Z,23.60
2018-08-30T16:04:41.580Z,23.50
2018-08-30T16:07:10.168Z,23.60
2018-08-30T16:09:39.075Z,23.60
2018-08-30T16:12:08.697Z,23.60
2018-08-30T16:14:37.843Z,23.50
2018-08-30T16:17:07.330Z,23.20
2018-08-30T16:19:35.701Z,23.10
2018-08-30T16:22:04.063Z,23.00
2018-08-30T16:24:32.503Z,22.90
2018-08-30T16:27:01.147Z,22.80
2018-08-30T16:29:30.332Z,22.80
2018-08-30T16:31:58.615Z,22.70
2018-08-30T16:34:28.245Z,22.60
2018-08-30T16:36:57.636Z,22.50
2018-08-30T16:39:27.200Z,22.40
2018-08-30T16:41:55.607Z,22.20
2018-08-30T16:44:24.195Z,22.20
2018-08-30T16:46:54.751Z,22.20
2018-08-30T16:49:23.768Z,22.20
2018-08-30T16:51:52.406Z,22.20
2018-08-30T16:54:21.378Z,22.00
2018-08-30T16:56:50.888Z,21.90
2018-08-30T16:59:20.203Z,21.70
2018-08-30T17:01:48.703Z,21.70
2018-08-30T17:04:17.625Z,21.60
2018-08-30T17:06:46.169Z,21.50
2018-08-30T17:09:15.609Z,21.50
2018-08-30T17:11:46.156Z,21.40
2018-08-30T17:14:15.806Z,21.40
2018-08-30T17:16:44.699Z,21.30
2018-08-30T17:19:22.560Z,21.20
2018-08-30T17:21:51.240Z,21.20
2018-08-30T17:24:20.009Z,21.10
2018-08-30T17:26:48.692Z,21.10
2018-08-30T17:29:17.746Z,21.00
2018-08-30T17:31:46.761Z,20.90
2018-08-30T17:34:15.678Z,20.90
2018-08-30T17:36:45.074Z,20.80
2018-08-30T17:39:14.141Z,20.70
2018-08-30T17:41:42.554Z,20.70
2018-08-30T17:44:11.779Z,20.60
2018-08-30T17:46:40.329Z,20.60
2018-08-30T17:49:09.121Z,20.50
2018-08-30T17:51:37.556Z,20.50
2018-08-30T17:54:06.510Z,20.40
2018-08-30T17:59:03.029Z,20.30
2018-08-30T18:01:31.530Z,20.20
2018-08-30T18:03:59.791Z,20.20
2018-08-30T18:06:28.143Z,20.10
2018-08-30T18:08:56.683Z,20.10
2018-08-30T18:11:25.030Z,20.10
2018-08-30T18:13:53.673Z,20.10
2018-08-30T18:16:22.535Z,20.10
2018-08-30T18:18:51.415Z,20.10
2018-08-30T18:21:20.007Z,20.10
2018-08-30T18:23:48.372Z,20.10
2018-08-30T18:26:17.613Z,20.00
2018-08-30T18:28:45.995Z,20.00
2018-08-30T18:31:16.058Z,19.90
2018-08-30T18:33:44.723Z,19.90
2018-08-30T18:36:13.663Z,19.90
2018-08-30T18:38:42.155Z,19.80
2018-08-30T18:41:10.590Z,19.90
2018-08-30T18:43:39.188Z,19.90
2018-08-30T18:46:07.630Z,19.80
2018-08-30T18:48:36.006Z,19.70
2018-08-30T18:51:05.739Z,19.70
2018-08-30T18:53:34.123Z,19.60
2018-08-30T18:56:02.470Z,19.60
2018-08-30T18:58:30.935Z,19.60
2018-08-30T19:01:00.100Z,19.50
2018-08-30T19:03:29.066Z,19.50
2018-08-30T19:05:58.874Z,19.50
2018-08-30T19:08:27.483Z,19.40
2018-08-30T19:10:56.226Z,19.30
2018-08-30T19:13:25.489Z,19.30
2018-08-30T19:15:59.026Z,19.20
2018-08-30T19:18:33.334Z,19.10
2018-08-30T19:21:02.226Z,19.10
2018-08-30T19:23:30.882Z,19.10
2018-08-30T19:25:59.418Z,19.10
2018-08-30T19:28:28.324Z,19.00
2018-08-30T19:30:56.743Z,19.00
2018-08-30T19:33:25.678Z,19.00
2018-08-30T19:35:59.640Z,19.00
2018-08-30T19:38:28.709Z,19.00
2018-08-30T19:41:02.602Z,19.00
2018-08-30T19:43:31.806Z,19.00
2018-08-30T19:46:00.375Z,19.00
2018-08-30T19:48:30.211Z,19.00
2018-08-30T19:50:59.320Z,19.00
2018-08-30T19:53:28.323Z,19.00
2018-08-30T19:55:57.202Z,19.00
2018-08-30T19:58:25.629Z,18.90
2018-08-30T20:00:53.977Z,18.80
2018-08-30T20:03:23.427Z,18.80
2018-08-30T20:05:52.052Z,18.70
2018-08-30T20:08:20.423Z,18.60
2018-08-30T20:10:49.157Z,18.60
2018-08-30T20:13:18.418Z,18.50
2018-08-30T20:15:47.290Z,18.40
2018-08-30T20:18:15.658Z,18.30
2018-08-30T20:20:44.298Z,18.20
2018-08-30T20:23:13.011Z,18.20
2018-08-30T20:25:41.371Z,18.10
2018-08-30T20:28:09.810Z,18.10
2018-08-30T20:30:38.167Z,18.10
2018-08-30T20:33:06.667Z,18.00
2018-08-30T20:35:35.306Z,18.00
2018-08-30T20:38:03.730Z,18.10
2018-08-30T20:40:32.382Z,18.10
2018-08-30T20:43:01.003Z,18.20
2018-08-30T20:45:29.358Z,18.20
2018-08-30T20:47:57.964Z,18.20
2018-08-30T20:50:26.358Z,18.20
2018-08-30T20:52:54.759Z,18.10
2018-08-30T20:55:23.436Z,18.10
2018-08-30T20:57:51.815Z,17.80
2018-08-30T21:00:20.827Z,17.90
2018-08-30T21:02:49.150Z,17.80
2018-08-30T21:05:17.515Z,17.90
2018-08-30T21:07:46.192Z,17.70
2018-08-30T21:10:14.958Z,17.80
2018-08-30T21:12:43.346Z,17.80
2018-08-30T21:15:11.999Z,17.80
2018-08-30T21:17:40.365Z,17.80
2018-08-30T21:20:08.810Z,17.80
2018-08-30T21:22:37.166Z,17.80
2018-08-30T21:25:06.180Z,17.80
2018-08-30T21:27:35.580Z,17.80
2018-08-30T21:30:04.934Z,17.70
2018-08-30T21:32:33.813Z,17.70
2018-08-30T21:35:02.224Z,17.60
2018-08-30T21:37:30.531Z,17.50
2018-08-30T21:39:59.366Z,17.50
2018-08-30T21:42:28.038Z,17.40
2018-08-30T21:44:56.703Z,17.20
2018-08-30T21:47:25.128Z,17.20
2018-08-30T21:49:54.075Z,17.20
2018-08-30T21:52:22.450Z,17.20
2018-08-30T21:54:51.174Z,17.10
2018-08-30T21:57:19.607Z,17.00
2018-08-30T21:59:48.302Z,17.00
2018-08-30T22:02:16.986Z,16.90
2018-08-30T22:04:45.312Z,17.00
2018-08-30T22:07:13.696Z,17.00
2018-08-30T22:09:43.103Z,17.10
2018-08-30T22:12:11.479Z,17.10
2018-08-30T22:14:40.166Z,17.00
2018-08-30T22:17:09.492Z,17.00
2018-08-30T22:19:38.118Z,17.10
2018-08-30T22:22:07.030Z,17.10
2018-08-30T22:24:35.419Z,17.00
2018-08-30T22:27:03.778Z,17.00
2018-08-30T22:29:32.475Z,17.00
2018-08-30T22:32:01.170Z,17.10
2018-08-30T22:34:29.854Z,17.00
2018-08-30T22:36:58.542Z,16.90
2018-08-30T22:39:26.926Z,16.80
2018-08-30T22:41:55.591Z,16.80
2018-08-30T22:44:24.711Z,16.80
2018-08-30T22:46:53.608Z,16.80
2018-08-30T22:49:22.270Z,16.70
2018-08-30T22:51:50.667Z,16.70
2018-08-30T22:54:19.106Z,16.70
2018-08-30T22:56:47.482Z,16.70
2018-08-30T22:59:16.090Z,16.70
2018-08-30T23:01:44.630Z,16.70
2018-08-30T23:04:12.974Z,16.80
2018-08-30T23:06:41.447Z,16.80
2018-08-30T23:09:11.098Z,16.80
2018-08-30T23:11:39.638Z,16.70
2018-08-30T23:14:08.351Z,16.60
2018-08-30T23:16:37.398Z,16.60
2018-08-30T23:19:06.290Z,16.60
2018-08-30T23:21:35.390Z,16.70
2018-08-30T23:24:03.774Z,16.80
2018-08-30T23:26:36.238Z,16.80
2018-08-30T23:29:04.906Z,16.80
2018-08-30T23:31:33.282Z,16.80
2018-08-30T23:34:02.515Z,16.80
2018-08-30T23:36:31.338Z,16.70
2018-08-30T23:38:59.999Z,16.60
2018-08-30T23:41:28.355Z,16.60
2018-08-30T23:43:56.752Z,16.60
2018-08-30T23:46:25.374Z,16.60
2018-08-30T23:48:54.023Z,16.60
2018-08-30T23:51:23.012Z,16.60
2018-08-30T23:53:51.350Z,16.60
2018-08-30T23:56:20.002Z,16.60
2018-08-30T23:58:59.626Z,16.60
